KRID/RID METAR and TAF weather

Enter ICAO airport designator
Station Type Date Time Source
KRID METAR 2020/09/19 18:15 UTC NOAA

KRID 191815Z AUTO 05006KT 10SM CLR 17/00 A3035 RMK AO2


Station Type Date Time Source
KRID Decoded METAR 2020/09/19 18:15 UTC NOAA

Station name not available
Sep 19, 2020 - 02:15 PM EDT / 2020.09.19 1815 UTC
Wind: from the NE (050 degrees) at 7 MPH (6 KT):0
Visibility: 10 mile(s):0
Sky conditions: clear
Temperature: 62 F (17 C)
Dew Point: 32 F (0 C)
Relative Humidity: 31%
Pressure (altimeter): 30.35 in. Hg (1027 hPa)
ob: KRID 191815Z AUTO 05006KT 10SM CLR 17/00 A3035 RMK AO2
cycle: 18

Station Type Date Time Source
KRID TAF UTC NOAA

Error!

Example: see airport list